createdAt,value
2019-02-14T00:00:48.146Z,27.20
2019-02-14T00:03:14.997Z,27.10
2019-02-14T00:05:41.764Z,27.00
2019-02-14T00:08:08.593Z,27.00
2019-02-14T00:10:35.430Z,27.10
2019-02-14T00:13:02.161Z,27.30
2019-02-14T00:15:28.866Z,27.30
2019-02-14T00:17:55.636Z,27.20
2019-02-14T00:20:22.387Z,27.20
2019-02-14T00:22:49.229Z,27.00
2019-02-14T00:25:15.960Z,27.00
2019-02-14T00:27:42.711Z,26.90
2019-02-14T00:30:09.449Z,26.80
2019-02-14T00:32:36.289Z,26.70
2019-02-14T00:35:03.130Z,26.70
2019-02-14T00:37:29.871Z,26.70
2019-02-14T00:39:56.702Z,26.60
2019-02-14T00:42:23.455Z,26.70
2019-02-14T00:44:50.178Z,26.70
2019-02-14T00:47:16.930Z,26.90
2019-02-14T00:49:43.661Z,26.90
2019-02-14T00:52:10.508Z,26.80
2019-02-14T00:54:37.239Z,26.60
2019-02-14T00:57:03.992Z,26.90
2019-02-14T00:59:30.730Z,26.70
2019-02-14T01:01:57.572Z,26.60
2019-02-14T01:04:24.437Z,26.70
2019-02-14T01:06:51.248Z,26.80
2019-02-14T01:09:17.993Z,26.90
2019-02-14T01:11:44.834Z,27.20
2019-02-14T01:14:11.575Z,27.30
2019-02-14T01:16:38.415Z,27.20
2019-02-14T01:19:05.188Z,27.00
2019-02-14T01:21:31.895Z,27.00
2019-02-14T01:23:58.598Z,27.20
2019-02-14T01:26:25.379Z,27.20
2019-02-14T01:28:52.212Z,27.20
2019-02-14T01:31:18.945Z,27.10
2019-02-14T01:33:45.645Z,26.90
2019-02-14T01:36:12.423Z,26.90
2019-02-14T01:38:39.170Z,26.90
2019-02-14T01:41:06.004Z,27.00
2019-02-14T01:43:32.749Z,27.00
2019-02-14T01:45:59.595Z,27.10
2019-02-14T01:48:26.323Z,27.10
2019-02-14T01:50:52.962Z,27.00
2019-02-14T01:53:19.816Z,27.20
2019-02-14T01:55:46.541Z,27.00
2019-02-14T01:58:13.290Z,27.00
2019-02-14T02:00:40.132Z,26.70
2019-02-14T02:03:07.071Z,26.70
2019-02-14T02:05:33.920Z,26.70
2019-02-14T02:08:00.645Z,26.50
2019-02-14T02:10:27.308Z,26.40
2019-02-14T02:12:54.135Z,26.10
2019-02-14T02:15:20.875Z,26.00
2019-02-14T02:17:48.252Z,25.80
2019-02-14T02:20:15.252Z,25.60
2019-02-14T02:22:42.212Z,25.60
2019-02-14T02:25:09.138Z,25.50
2019-02-14T02:27:36.004Z,25.50
2019-02-14T02:30:02.839Z,25.50
2019-02-14T02:32:29.575Z,25.50
2019-02-14T02:34:56.331Z,25.50
2019-02-14T02:37:23.177Z,25.60
2019-02-14T02:39:49.895Z,25.70
2019-02-14T02:42:16.650Z,25.70
2019-02-14T02:44:43.373Z,25.60
2019-02-14T02:47:10.115Z,25.60
2019-02-14T02:49:36.851Z,25.80
2019-02-14T02:52:03.596Z,25.80
2019-02-14T02:54:30.646Z,25.80
2019-02-14T02:56:57.391Z,25.90
2019-02-14T02:59:24.179Z,25.70
2019-02-14T03:01:50.961Z,25.80
2019-02-14T03:04:17.709Z,25.60
2019-02-14T03:06:44.551Z,25.60
2019-02-14T03:09:11.287Z,25.60
2019-02-14T03:11:38.034Z,25.50
2019-02-14T03:14:04.872Z,25.50
2019-02-14T03:16:31.611Z,25.60
2019-02-14T03:18:58.453Z,25.50
2019-02-14T03:21:25.192Z,25.50
2019-02-14T03:23:51.932Z,25.60
2019-02-14T03:26:18.670Z,25.60
2019-02-14T03:28:45.369Z,25.70
2019-02-14T03:31:12.151Z,25.70
2019-02-14T03:33:38.878Z,25.70
2019-02-14T03:36:05.626Z,25.70
2019-02-14T03:38:32.367Z,25.60
2019-02-14T03:40:59.603Z,25.60
2019-02-14T03:43:26.449Z,25.70
2019-02-14T03:45:53.200Z,25.80
2019-02-14T03:48:19.927Z,25.90
2019-02-14T03:50:46.779Z,26.10
2019-02-14T03:53:13.624Z,26.10
2019-02-14T03:55:40.462Z,26.10
2019-02-14T03:58:07.205Z,26.30
2019-02-14T04:00:33.935Z,26.40
2019-02-14T04:03:00.833Z,26.50
2019-02-14T04:05:27.617Z,26.50
2019-02-14T04:07:54.473Z,26.20
2019-02-14T04:10:21.405Z,26.10
2019-02-14T04:12:48.153Z,25.90
2019-02-14T04:15:14.994Z,25.80
2019-02-14T04:17:41.927Z,25.90
2019-02-14T04:20:08.722Z,25.70
2019-02-14T04:22:35.507Z,25.70
2019-02-14T04:25:02.243Z,25.60
2019-02-14T04:27:28.891Z,25.70
2019-02-14T04:29:55.727Z,25.40
2019-02-14T04:32:22.985Z,25.60
2019-02-14T04:34:49.827Z,25.70
2019-02-14T04:37:16.555Z,25.60
2019-02-14T04:39:43.313Z,26.40
2019-02-14T04:42:10.038Z,26.00
2019-02-14T04:44:36.884Z,26.10
2019-02-14T04:47:03.728Z,26.10
2019-02-14T04:49:30.470Z,26.10
2019-02-14T04:51:57.196Z,26.10
2019-02-14T04:54:23.957Z,26.10
2019-02-14T04:56:50.776Z,25.90
2019-02-14T04:59:17.412Z,26.00
2019-02-14T05:01:44.065Z,26.10
2019-02-14T05:04:10.903Z,26.10
2019-02-14T05:06:44.225Z,26.10
2019-02-14T05:09:06.171Z,26.10
2019-02-14T05:11:32.970Z,26.10
2019-02-14T05:13:59.806Z,26.20
2019-02-14T05:16:26.648Z,26.30
2019-02-14T05:18:53.592Z,26.40
2019-02-14T05:21:20.325Z,26.50
2019-02-14T05:23:47.178Z,26.40
2019-02-14T05:26:13.912Z,26.40
2019-02-14T05:28:40.760Z,26.40
2019-02-14T05:31:07.590Z,26.40
2019-02-14T05:33:34.359Z,26.40
2019-02-14T05:36:01.064Z,26.50
2019-02-14T05:38:27.805Z,26.50
2019-02-14T05:40:54.543Z,26.50
2019-02-14T05:43:21.284Z,26.40
2019-02-14T05:45:48.337Z,26.60
2019-02-14T05:48:15.079Z,26.70
2019-02-14T05:50:41.919Z,26.70
2019-02-14T05:53:08.712Z,26.70
2019-02-14T05:55:35.509Z,26.90
2019-02-14T05:58:02.241Z,26.80
2019-02-14T06:00:29.070Z,26.80
2019-02-14T06:02:55.709Z,26.80
2019-02-14T06:05:22.482Z,26.70
2019-02-14T06:07:49.303Z,26.10
2019-02-14T06:10:15.990Z,26.60
2019-02-14T06:12:42.678Z,26.60
2019-02-14T06:15:09.609Z,26.60
2019-02-14T06:17:36.563Z,26.60
2019-02-14T06:20:03.301Z,26.70
2019-02-14T06:22:30.143Z,26.70
2019-02-14T06:24:56.874Z,26.40
2019-02-14T06:27:23.624Z,26.80
2019-02-14T06:29:50.383Z,26.80
2019-02-14T06:32:17.090Z,26.90
2019-02-14T06:34:43.728Z,26.90
2019-02-14T06:37:10.581Z,27.10
2019-02-14T06:39:37.428Z,27.20
2019-02-14T06:42:04.200Z,27.20
2019-02-14T06:44:30.991Z,27.20
2019-02-14T06:46:57.634Z,27.00
2019-02-14T06:49:24.379Z,27.00
2019-02-14T06:51:51.223Z,27.10
2019-02-14T06:54:17.953Z,26.80
2019-02-14T06:56:44.689Z,26.80
2019-02-14T06:59:11.542Z,26.70
2019-02-14T07:01:38.389Z,26.80
2019-02-14T07:04:05.329Z,26.80
2019-02-14T07:06:32.059Z,26.70
2019-02-14T07:08:58.799Z,26.50
2019-02-14T07:11:25.544Z,26.50
2019-02-14T07:13:52.277Z,26.40
2019-02-14T07:16:19.014Z,26.20
2019-02-14T07:18:45.650Z,26.70
2019-02-14T07:21:12.388Z,26.40
2019-02-14T07:23:39.026Z,26.50
2019-02-14T07:26:05.771Z,26.50
2019-02-14T07:28:32.403Z,26.70
2019-02-14T07:30:59.141Z,26.70
2019-02-14T07:33:25.778Z,26.80
2019-02-14T07:35:52.631Z,26.70
2019-02-14T07:38:19.464Z,27.20
2019-02-14T07:40:46.201Z,26.50
2019-02-14T07:43:12.906Z,26.20
2019-02-14T07:45:41.271Z,26.40
2019-02-14T07:48:08.057Z,26.30
2019-02-14T07:50:34.906Z,26.00
2019-02-14T07:53:01.753Z,25.40
2019-02-14T07:55:28.489Z,25.70
2019-02-14T07:57:55.217Z,25.60
2019-02-14T08:00:21.970Z,25.40
2019-02-14T08:02:48.706Z,25.30
2019-02-14T08:05:15.404Z,25.30
2019-02-14T08:07:42.189Z,25.10
2019-02-14T08:10:08.927Z,25.00
2019-02-14T08:12:35.654Z,25.10
2019-02-14T08:15:02.418Z,24.90
2019-02-14T08:17:29.131Z,24.80
2019-02-14T08:19:55.877Z,24.80
2019-02-14T08:22:22.623Z,24.60
2019-02-14T08:24:49.368Z,24.40
2019-02-14T08:27:16.202Z,24.40
2019-02-14T08:29:43.045Z,24.30
2019-02-14T08:32:09.785Z,24.00
2019-02-14T08:34:36.523Z,23.70
2019-02-14T08:37:03.262Z,23.80
2019-02-14T08:39:30.003Z,23.70
2019-02-14T08:41:56.739Z,23.40
2019-02-14T08:44:23.474Z,23.10
2019-02-14T08:46:50.220Z,23.10
2019-02-14T08:49:16.950Z,22.50
2019-02-14T08:51:43.688Z,22.50
2019-02-14T08:54:10.331Z,22.00
2019-02-14T08:56:37.075Z,21.80
2019-02-14T08:59:03.819Z,21.40
2019-02-14T09:01:30.549Z,21.40
2019-02-14T09:03:57.295Z,21.30
2019-02-14T09:06:24.137Z,21.70
2019-02-14T09:08:50.976Z,21.60
2019-02-14T09:11:17.816Z,21.30
2019-02-14T09:13:44.517Z,21.20
2019-02-14T09:16:11.298Z,21.10
2019-02-14T09:18:38.035Z,21.00
2019-02-14T09:21:04.769Z,20.60
2019-02-14T09:23:31.505Z,20.40
2019-02-14T09:25:58.254Z,20.30
2019-02-14T09:28:24.960Z,20.40
2019-02-14T09:30:51.731Z,19.90
2019-02-14T09:33:18.464Z,19.90
2019-02-14T09:35:45.218Z,20.40
2019-02-14T09:38:11.948Z,20.50
2019-02-14T09:40:38.690Z,20.10
2019-02-14T09:43:05.559Z,19.90
2019-02-14T09:45:32.678Z,20.10
2019-02-14T09:47:59.694Z,20.20
2019-02-14T09:50:26.483Z,20.10
2019-02-14T09:52:53.381Z,20.10
2019-02-14T09:55:20.150Z,20.00
2019-02-14T09:57:46.892Z,19.80
2019-02-14T10:00:13.731Z,19.90
2019-02-14T10:02:40.432Z,19.50
2019-02-14T10:05:07.116Z,19.10
2019-02-14T10:07:33.948Z,18.90
2019-02-14T10:10:00.789Z,18.90
2019-02-14T10:12:27.628Z,18.50
2019-02-14T10:14:54.319Z,18.50
2019-02-14T10:17:22.438Z,18.50
2019-02-14T10:19:49.238Z,18.50
2019-02-14T10:25:01.437Z,18.30
2019-02-14T10:27:28.138Z,18.20
2019-02-14T10:29:54.975Z,18.60
2019-02-14T10:32:21.707Z,18.80
2019-02-14T10:34:48.345Z,19.10
2019-02-14T10:37:15.291Z,19.30
2019-02-14T10:39:42.040Z,19.50
2019-02-14T10:42:08.907Z,19.60
2019-02-14T10:44:35.824Z,19.60
2019-02-14T10:47:02.555Z,19.70
2019-02-14T10:49:29.300Z,19.50
2019-02-14T10:51:56.042Z,19.30
2019-02-14T10:54:22.774Z,18.80
2019-02-14T10:56:49.517Z,18.30
2019-02-14T10:59:16.363Z,18.00
2019-02-14T11:01:43.202Z,16.80
2019-02-14T11:04:10.248Z,16.30
2019-02-14T11:06:36.991Z,15.30
2019-02-14T11:09:03.922Z,14.60
2019-02-14T11:11:30.673Z,14.00
2019-02-14T11:13:57.508Z,14.10
2019-02-14T11:16:24.453Z,14.10
2019-02-14T11:18:51.189Z,14.10
2019-02-14T11:21:18.149Z,14.30
2019-02-14T11:23:44.996Z,14.30
2019-02-14T11:26:11.823Z,14.90
2019-02-14T11:28:38.563Z,15.20
2019-02-14T11:31:05.268Z,15.80
2019-02-14T11:33:32.041Z,16.30
2019-02-14T11:35:58.770Z,16.70
2019-02-14T11:38:25.511Z,17.10
2019-02-14T11:40:52.251Z,17.20
2019-02-14T11:43:18.998Z,17.50
2019-02-14T11:45:45.839Z,17.80
2019-02-14T11:48:12.570Z,17.60
2019-02-14T11:50:39.533Z,17.90
2019-02-14T11:53:14.043Z,18.10
2019-02-14T11:55:34.759Z,18.10
2019-02-14T11:58:01.588Z,18.20
2019-02-14T12:00:28.519Z,18.40
2019-02-14T12:02:56.314Z,18.40
2019-02-14T12:05:23.434Z,18.50
2019-02-14T12:07:50.190Z,18.90
2019-02-14T12:10:17.031Z,19.10
2019-02-14T12:12:43.761Z,19.50
2019-02-14T12:15:10.602Z,19.60
2019-02-14T12:17:37.347Z,19.50
2019-02-14T12:20:04.084Z,19.50
2019-02-14T12:22:30.810Z,19.70
2019-02-14T12:24:57.549Z,19.50
2019-02-14T12:27:24.309Z,19.20
2019-02-14T12:29:51.027Z,18.80
2019-02-14T12:32:17.776Z,18.40
2019-02-14T12:34:44.520Z,18.80
2019-02-14T12:37:11.247Z,18.50
2019-02-14T12:39:38.089Z,18.50
2019-02-14T12:42:04.815Z,18.40
2019-02-14T12:44:31.580Z,18.40
2019-02-14T12:46:58.311Z,18.20
2019-02-14T12:49:25.352Z,18.50
2019-02-14T12:51:52.315Z,18.60
2019-02-14T12:54:19.049Z,18.60
2019-02-14T12:56:45.794Z,18.70
2019-02-14T12:59:12.543Z,18.70
2019-02-14T13:01:39.262Z,18.90
2019-02-14T13:04:06.075Z,18.90
2019-02-14T13:06:32.845Z,18.70
2019-02-14T13:08:59.688Z,18.90
2019-02-14T13:11:26.531Z,19.40
2019-02-14T13:13:53.378Z,19.10
2019-02-14T13:16:20.199Z,19.40
2019-02-14T13:18:46.942Z,19.60
2019-02-14T13:21:13.695Z,20.00
2019-02-14T13:23:40.419Z,19.80
2019-02-14T13:26:07.158Z,20.00
2019-02-14T13:28:33.998Z,20.20
2019-02-14T13:31:00.774Z,20.30
2019-02-14T13:33:27.594Z,20.10
2019-02-14T13:35:54.478Z,20.20
2019-02-14T13:38:21.167Z,20.00
2019-02-14T13:40:48.012Z,20.30
2019-02-14T13:43:14.743Z,20.60
2019-02-14T13:45:41.489Z,20.90
2019-02-14T13:48:08.348Z,20.90
2019-02-14T13:50:35.076Z,20.80
2019-02-14T13:53:02.036Z,20.80
2019-02-14T13:55:28.857Z,20.80
2019-02-14T13:57:55.590Z,20.60
2019-02-14T14:00:22.359Z,20.40
2019-02-14T14:02:49.088Z,19.70
2019-02-14T14:05:16.022Z,19.00
2019-02-14T14:07:42.862Z,18.30
2019-02-14T14:10:09.599Z,17.80
2019-02-14T14:12:36.440Z,17.10
2019-02-14T14:15:03.181Z,17.00
2019-02-14T14:17:30.060Z,16.60
2019-02-14T14:19:56.862Z,16.10
2019-02-14T14:22:23.591Z,15.40
2019-02-14T14:24:50.333Z,14.90
2019-02-14T14:27:17.089Z,14.60
2019-02-14T14:29:44.015Z,14.20
2019-02-14T14:32:10.651Z,14.30
2019-02-14T14:34:37.289Z,14.30
2019-02-14T14:37:04.039Z,14.40
2019-02-14T14:39:30.882Z,14.80
2019-02-14T14:41:57.723Z,14.30
2019-02-14T14:44:24.960Z,14.50
2019-02-14T14:46:51.712Z,14.60
2019-02-14T14:49:18.553Z,14.90
2019-02-14T14:51:45.261Z,15.40
2019-02-14T14:54:12.035Z,15.90
2019-02-14T14:56:38.976Z,16.40
2019-02-14T14:59:05.763Z,16.90
2019-02-14T15:01:32.917Z,17.30
2019-02-14T15:03:59.760Z,17.60
2019-02-14T15:06:26.548Z,17.80
2019-02-14T15:08:53.278Z,18.00
2019-02-14T15:11:19.923Z,18.30
2019-02-14T15:13:46.767Z,18.60
2019-02-14T15:16:13.712Z,19.00
2019-02-14T15:18:40.544Z,19.20
2019-02-14T15:21:07.280Z,19.80
2019-02-14T15:23:34.032Z,20.00
2019-02-14T15:26:00.881Z,20.30
2019-02-14T15:28:27.612Z,20.50
2019-02-14T15:30:54.403Z,20.80
2019-02-14T15:33:21.186Z,20.90
2019-02-14T15:35:48.039Z,21.10
2019-02-14T15:38:14.775Z,21.40
2019-02-14T15:40:41.516Z,21.50
2019-02-14T15:43:08.355Z,21.70
2019-02-14T15:45:35.090Z,21.90
2019-02-14T15:48:01.821Z,22.10
2019-02-14T15:50:29.910Z,22.40
2019-02-14T15:52:57.057Z,22.70
2019-02-14T15:55:24.293Z,23.00
2019-02-14T15:57:51.217Z,23.20
2019-02-14T16:00:18.021Z,23.50
2019-02-14T16:02:44.931Z,24.00
2019-02-14T16:05:11.685Z,24.20
2019-02-14T16:07:39.507Z,24.30
2019-02-14T16:10:06.980Z,24.40
2019-02-14T16:12:33.735Z,24.50
2019-02-14T16:15:00.457Z,24.50
2019-02-14T16:17:27.198Z,24.70
2019-02-14T16:19:55.514Z,24.70
2019-02-14T16:22:29.862Z,24.80
2019-02-14T16:24:50.770Z,24.80
2019-02-14T16:27:17.552Z,24.80
2019-02-14T16:29:44.302Z,25.00
2019-02-14T16:32:11.124Z,25.30
2019-02-14T16:34:38.064Z,25.40
2019-02-14T16:37:04.816Z,25.50
2019-02-14T16:39:31.511Z,25.80
2019-02-14T16:41:58.175Z,25.90
2019-02-14T16:44:25.324Z,26.20
2019-02-14T16:46:52.076Z,26.10
2019-02-14T16:49:18.807Z,26.30
2019-02-14T16:51:45.548Z,26.30
2019-02-14T16:54:12.297Z,26.50
2019-02-14T16:56:39.134Z,26.70
2019-02-14T16:59:05.908Z,26.80
2019-02-14T17:01:34.762Z,27.00
2019-02-14T17:04:01.596Z,27.10
2019-02-14T17:06:28.339Z,27.10
2019-02-14T17:08:55.185Z,27.20
2019-02-14T17:11:22.013Z,27.00
2019-02-14T17:13:48.974Z,27.00
2019-02-14T17:16:15.826Z,27.00
2019-02-14T17:18:42.709Z,27.00
2019-02-14T17:21:09.514Z,27.20
2019-02-14T17:23:36.337Z,27.30
2019-02-14T17:26:03.193Z,27.30
2019-02-14T17:28:30.029Z,27.30
2019-02-14T17:30:56.754Z,27.30
2019-02-14T17:33:23.596Z,27.20
2019-02-14T17:35:50.355Z,27.30
2019-02-14T17:38:17.196Z,27.20
2019-02-14T17:40:45.976Z,27.50
2019-02-14T17:43:12.397Z,27.40
2019-02-14T17:45:39.233Z,27.60
2019-02-14T17:48:06.289Z,27.60
2019-02-14T17:50:33.034Z,27.50
2019-02-14T17:52:59.770Z,27.50
2019-02-14T17:55:26.711Z,27.30
2019-02-14T17:57:53.511Z,27.50
2019-02-14T18:00:20.912Z,27.40
2019-02-14T18:02:47.619Z,27.20
2019-02-14T18:05:14.491Z,27.10
2019-02-14T18:07:41.331Z,26.80
2019-02-14T18:10:08.167Z,26.80
2019-02-14T18:12:35.103Z,26.80
2019-02-14T18:15:02.010Z,26.80
2019-02-14T18:17:28.789Z,26.80
2019-02-14T18:19:55.875Z,26.90
2019-02-14T18:22:22.681Z,27.00
2019-02-14T18:24:49.545Z,27.20
2019-02-14T18:27:16.465Z,27.20
2019-02-14T18:29:43.471Z,27.40
2019-02-14T18:32:10.167Z,27.30
2019-02-14T18:34:36.995Z,27.20
2019-02-14T18:37:03.843Z,27.10
2019-02-14T18:39:31.708Z,27.30
2019-02-14T18:41:58.595Z,27.20
2019-02-14T18:44:25.350Z,27.30
2019-02-14T18:46:52.144Z,27.20
2019-02-14T18:49:19.307Z,27.10
2019-02-14T18:51:46.188Z,27.70
2019-02-14T18:54:12.963Z,27.30
2019-02-14T18:56:39.796Z,27.30
2019-02-14T18:59:06.652Z,27.40
2019-02-14T19:01:33.372Z,27.50
2019-02-14T19:04:00.114Z,27.50
2019-02-14T19:06:26.869Z,27.40
2019-02-14T19:08:53.797Z,27.40
2019-02-14T19:11:20.854Z,27.60
2019-02-14T19:13:47.797Z,27.50
2019-02-14T19:16:14.535Z,27.50
2019-02-14T19:18:41.380Z,27.30
2019-02-14T19:21:08.220Z,27.40
2019-02-14T19:23:35.060Z,27.50
2019-02-14T19:26:01.796Z,27.50
2019-02-14T19:28:28.731Z,27.50
2019-02-14T19:30:55.470Z,27.40
2019-02-14T19:33:22.222Z,27.50
2019-02-14T19:35:49.002Z,27.40
2019-02-14T19:38:15.800Z,27.40
2019-02-14T19:40:42.531Z,27.40
2019-02-14T19:43:09.291Z,27.30
2019-02-14T19:45:36.908Z,27.30
2019-02-14T19:48:03.979Z,27.20
2019-02-14T19:50:30.682Z,27.20
2019-02-14T19:52:57.472Z,27.30
2019-02-14T19:55:24.372Z,27.20
2019-02-14T19:57:51.147Z,27.30
2019-02-14T20:00:18.003Z,27.20
2019-02-14T20:02:44.931Z,27.30
2019-02-14T20:05:11.680Z,27.30
2019-02-14T20:07:38.409Z,27.30
2019-02-14T20:10:05.143Z,27.40
2019-02-14T20:12:31.903Z,27.30
2019-02-14T20:14:58.739Z,27.40
2019-02-14T20:17:25.466Z,27.50
2019-02-14T20:19:52.218Z,27.60
2019-02-14T20:22:18.960Z,27.50
2019-02-14T20:24:45.792Z,27.50
2019-02-14T20:27:12.628Z,27.70
2019-02-14T20:29:39.479Z,27.80
2019-02-14T20:32:06.219Z,27.90
2019-02-14T20:34:33.241Z,27.80
2019-02-14T20:37:00.109Z,27.90
2019-02-14T20:39:26.847Z,28.10
2019-02-14T20:41:53.794Z,28.20
2019-02-14T20:44:20.632Z,28.30
2019-02-14T20:46:47.386Z,28.30
2019-02-14T20:49:14.209Z,28.40
2019-02-14T20:51:40.945Z,28.30
2019-02-14T20:54:07.690Z,27.70
2019-02-14T20:56:34.535Z,28.00
2019-02-14T20:59:01.275Z,27.90
2019-02-14T21:01:28.120Z,27.80
2019-02-14T21:03:54.840Z,27.70
2019-02-14T21:06:21.482Z,27.70
2019-02-14T21:08:48.228Z,27.50
2019-02-14T21:11:15.071Z,27.50
2019-02-14T21:13:41.915Z,27.40
2019-02-14T21:16:08.643Z,27.30
2019-02-14T21:18:35.386Z,27.40
2019-02-14T21:21:02.130Z,27.30
2019-02-14T21:23:28.864Z,27.50
2019-02-14T21:25:55.715Z,27.20
2019-02-14T21:28:22.449Z,27.20
2019-02-14T21:30:49.393Z,27.20
2019-02-14T21:33:16.134Z,27.20
2019-02-14T21:35:42.866Z,27.10
2019-02-14T21:38:09.731Z,27.20
2019-02-14T21:40:36.450Z,27.00
2019-02-14T21:43:03.270Z,27.10
2019-02-14T21:45:30.263Z,27.10
2019-02-14T21:47:57.105Z,27.10
2019-02-14T21:50:23.919Z,27.20
2019-02-14T21:52:50.654Z,27.20
2019-02-14T21:55:18.144Z,27.30
2019-02-14T21:57:45.378Z,27.30
2019-02-14T22:00:12.222Z,27.80
2019-02-14T22:02:39.072Z,27.30
2019-02-14T22:05:05.966Z,27.30
2019-02-14T22:07:34.916Z,27.40
2019-02-14T22:10:01.457Z,27.40
2019-02-14T22:12:39.772Z,27.40
2019-02-14T22:14:58.237Z,27.40
2019-02-14T22:17:25.182Z,27.30
2019-02-14T22:19:52.024Z,27.30
2019-02-14T22:22:18.808Z,27.30
2019-02-14T22:24:45.549Z,27.30
2019-02-14T22:27:12.375Z,27.40
2019-02-14T22:29:39.101Z,27.40
2019-02-14T22:32:06.058Z,27.50
2019-02-14T22:34:33.001Z,27.50
2019-02-14T22:36:59.845Z,27.50
2019-02-14T22:39:26.692Z,27.60
2019-02-14T22:41:53.638Z,27.50
2019-02-14T22:44:20.483Z,27.60
2019-02-14T22:46:47.222Z,27.60
2019-02-14T22:49:14.061Z,27.50
2019-02-14T22:51:40.904Z,27.50
2019-02-14T22:54:07.872Z,27.50
2019-02-14T22:56:34.689Z,27.50
2019-02-14T22:59:01.418Z,27.40
2019-02-14T23:01:28.158Z,27.40
2019-02-14T23:03:55.006Z,27.80
2019-02-14T23:06:22.012Z,27.40
2019-02-14T23:08:48.796Z,27.40
2019-02-14T23:11:15.530Z,27.40
2019-02-14T23:13:42.376Z,27.40
2019-02-14T23:16:09.616Z,27.30
2019-02-14T23:18:36.364Z,27.20
2019-02-14T23:21:03.062Z,27.30
2019-02-14T23:23:29.741Z,27.30
2019-02-14T23:25:56.678Z,27.70
2019-02-14T23:28:23.528Z,27.30
2019-02-14T23:30:50.259Z,27.20
2019-02-14T23:33:17.234Z,27.20
2019-02-14T23:35:44.050Z,27.20
2019-02-14T23:38:10.782Z,27.20
2019-02-14T23:40:37.531Z,27.30
2019-02-14T23:43:05.028Z,27.20
2019-02-14T23:45:31.920Z,27.20
2019-02-14T23:47:58.662Z,27.20
2019-02-14T23:50:25.410Z,27.20
2019-02-14T23:52:52.854Z,27.20
2019-02-14T23:55:19.603Z,27.30
2019-02-14T23:57:46.333Z,27.20
